KBVO/BVO METAR and TAF weather

Enter ICAO airport designator
Station Type Date Time Source
KBVO METAR 2020/02/24 23:53 UTC NOAA

KBVO 242353Z AUTO 35009G14KT 10SM OVC017 08/05 A2977 RMK AO2 SLP078 T00780050 10100 20078 53028


Station Type Date Time Source
KBVO Decoded METAR 2020/02/24 23:53 UTC NOAA

BARTLESVILLE MUNICIPAL AIRPORT , OK, United States (KBVO) 36-46N 96-01W 210M
Feb 24, 2020 - 06:53 PM EST / 2020.02.24 2353 UTC
Wind: from the N (350 degrees) at 10 MPH (9 KT) gusting to 16 MPH (14 KT):0
Visibility: 10 mile(s):0
Sky conditions: overcast
Temperature: 46.0 F (7.8 C)
Dew Point: 41.0 F (5.0 C)
Relative Humidity: 82%
Pressure (altimeter): 29.77 in. Hg (1008 hPa)
Pressure tendency: 0.08 inches (2.8 hPa) higher than three hours ago
ob: KBVO 242353Z AUTO 35009G14KT 10SM OVC017 08/05 A2977 RMK AO2 SLP078 T00780050 10100 20078 53028
cycle: 0

Station Type Date Time Source
KBVO TAF 2020/02/24 18:22 UTC NOAA

TAF KBVO 241720Z 2418/2518 35007KT P6SM OVC008
FM241900 34011G18KT P6SM OVC012
FM250100 33007KT P6SM OVC025
FM250600 30003KT P6SM BKN050
FM251200 28005KT P6SM BKN025

Example: see airport list